createdAt,value
2018-07-14T00:01:31.871Z,10.30
2018-07-14T00:04:00.469Z,11.27
2018-07-14T00:06:28.724Z,9.53
2018-07-14T00:08:57.307Z,9.80
2018-07-14T00:11:25.874Z,9.57
2018-07-14T00:13:54.028Z,11.03
2018-07-14T00:16:22.168Z,9.90
2018-07-14T00:18:50.376Z,10.13
2018-07-14T00:21:18.616Z,11.00
2018-07-14T00:23:47.091Z,10.20
2018-07-14T00:26:18.031Z,9.00
2018-07-14T00:28:46.859Z,11.03
2018-07-14T00:31:15.625Z,10.00
2018-07-14T00:33:43.768Z,10.17
2018-07-14T00:36:12.072Z,9.80
2018-07-14T00:38:40.231Z,10.73
2018-07-14T00:41:08.924Z,10.20
2018-07-14T00:43:37.063Z,11.33
2018-07-14T00:46:05.312Z,12.93
2018-07-14T00:48:33.859Z,9.70
2018-07-14T00:51:02.044Z,11.90
2018-07-14T00:53:30.300Z,12.00
2018-07-14T00:55:58.494Z,11.17
2018-07-14T00:58:26.649Z,10.80
2018-07-14T01:00:54.847Z,10.70
2018-07-14T01:03:23.008Z,11.30
2018-07-14T01:05:51.173Z,13.53
2018-07-14T01:08:19.360Z,12.60
2018-07-14T01:10:47.904Z,11.80
2018-07-14T01:13:16.063Z,11.13
2018-07-14T01:15:44.208Z,11.50
2018-07-14T01:18:12.352Z,11.43
2018-07-14T01:20:40.516Z,10.97
2018-07-14T01:23:08.648Z,10.67
2018-07-14T01:25:36.856Z,10.57
2018-07-14T01:28:05.072Z,11.50
2018-07-14T01:30:33.584Z,10.70
2018-07-14T01:33:01.792Z,9.50
2018-07-14T01:35:29.940Z,10.97
2018-07-14T01:37:58.112Z,11.33
2018-07-14T01:40:26.424Z,12.30
2018-07-14T01:42:54.789Z,10.90
2018-07-14T01:45:22.899Z,10.93
2018-07-14T01:47:51.104Z,11.27
2018-07-14T01:50:19.291Z,9.97
2018-07-14T01:52:47.864Z,10.07
2018-07-14T01:55:16.045Z,10.50
2018-07-14T01:57:44.396Z,9.70
2018-07-14T02:00:12.596Z,10.30
2018-07-14T02:02:40.949Z,9.63
2018-07-14T02:05:09.264Z,9.57
2018-07-14T02:07:37.415Z,9.73
2018-07-14T02:10:06.403Z,10.23
2018-07-14T02:12:34.923Z,11.73
2018-07-14T02:15:03.189Z,10.63
2018-07-14T02:17:31.551Z,9.50
2018-07-14T02:19:59.839Z,10.00
2018-07-14T02:22:28.180Z,11.03
2018-07-14T02:24:56.979Z,10.13
2018-07-14T02:27:25.307Z,10.43
2018-07-14T02:29:53.449Z,10.70
2018-07-14T02:32:21.641Z,10.43
2018-07-14T02:34:50.056Z,10.77
2018-07-14T02:37:18.204Z,10.70
2018-07-14T02:39:46.340Z,10.77
2018-07-14T02:42:14.600Z,10.20
2018-07-14T02:44:42.835Z,10.03
2018-07-14T02:47:11.176Z,10.10
2018-07-14T02:49:39.326Z,10.20
2018-07-14T02:52:07.487Z,9.93
2018-07-14T02:54:36.021Z,10.60
2018-07-14T02:57:04.313Z,10.10
2018-07-14T02:59:32.575Z,10.67
2018-07-14T03:02:00.727Z,9.57
2018-07-14T03:04:28.996Z,10.33
2018-07-14T03:06:57.176Z,11.07
2018-07-14T03:09:25.291Z,10.20
2018-07-14T03:11:53.431Z,9.30
2018-07-14T03:14:21.784Z,10.37
2018-07-14T03:16:49.935Z,10.60
2018-07-14T03:19:18.182Z,9.57
2018-07-14T03:21:46.508Z,10.03
2018-07-14T03:24:14.759Z,10.87
2018-07-14T03:26:42.995Z,10.20
2018-07-14T03:29:11.374Z,9.90
2018-07-14T03:31:39.522Z,9.30
2018-07-14T03:34:07.675Z,11.83
2018-07-14T03:36:36.241Z,9.53
2018-07-14T03:39:04.844Z,10.50
2018-07-14T03:41:33.276Z,10.07
2018-07-14T03:44:01.629Z,11.50
2018-07-14T03:46:29.794Z,9.50
2018-07-14T03:48:58.224Z,9.30
2018-07-14T03:51:26.497Z,10.57
2018-07-14T03:53:54.699Z,9.93
2018-07-14T03:56:22.956Z,10.17
2018-07-14T03:58:51.145Z,9.63
2018-07-14T04:01:19.507Z,9.87
2018-07-14T04:03:48.047Z,10.20
2018-07-14T04:06:16.194Z,9.87
2018-07-14T04:08:44.547Z,10.40
2018-07-14T04:11:12.740Z,11.10
2018-07-14T04:13:40.874Z,10.50
2018-07-14T04:16:09.088Z,9.70
2018-07-14T04:18:37.266Z,12.13
2018-07-14T04:21:05.500Z,10.27
2018-07-14T04:23:33.652Z,11.40
2018-07-14T04:26:01.780Z,10.33
2018-07-14T04:28:30.064Z,10.97
2018-07-14T04:30:58.222Z,11.73
2018-07-14T04:33:26.404Z,11.50
2018-07-14T04:35:54.592Z,10.20
2018-07-14T04:38:22.788Z,11.60
2018-07-14T04:40:50.952Z,13.10
2018-07-14T04:43:19.159Z,10.37
2018-07-14T04:45:47.500Z,10.90
2018-07-14T04:48:15.632Z,10.23
2018-07-14T04:50:43.779Z,10.87
2018-07-14T04:53:11.969Z,10.00
2018-07-14T04:55:40.300Z,9.60
2018-07-14T04:58:08.495Z,10.63
2018-07-14T05:00:36.657Z,10.63
2018-07-14T05:03:05.314Z,11.00
2018-07-14T05:05:33.487Z,10.30
2018-07-14T05:08:01.684Z,10.10
2018-07-14T05:10:29.879Z,11.07
2018-07-14T05:12:58.048Z,11.90
2018-07-14T05:15:26.235Z,10.10
2018-07-14T05:17:54.387Z,10.50
2018-07-14T05:20:22.765Z,11.23
2018-07-14T05:22:50.919Z,11.57
2018-07-14T05:25:19.335Z,11.47
2018-07-14T05:27:47.676Z,11.60
2018-07-14T05:30:15.806Z,11.30
2018-07-14T05:32:43.980Z,11.27
2018-07-14T05:35:12.231Z,10.53
2018-07-14T05:37:40.423Z,11.80
2018-07-14T05:40:08.951Z,12.00
2018-07-14T05:42:37.159Z,12.07
2018-07-14T05:45:05.520Z,13.17
2018-07-14T05:47:33.831Z,11.53
2018-07-14T05:50:02.050Z,11.77
2018-07-14T05:52:30.875Z,12.50
2018-07-14T05:54:59.272Z,11.60
2018-07-14T05:57:27.471Z,14.07
2018-07-14T05:59:55.639Z,13.80
2018-07-14T06:02:24.249Z,12.40
2018-07-14T06:04:52.403Z,13.33
2018-07-14T06:07:20.556Z,16.17
2018-07-14T06:09:48.959Z,15.00
2018-07-14T06:12:17.540Z,14.80
2018-07-14T06:14:45.843Z,15.63
2018-07-14T06:17:14.145Z,13.93
2018-07-14T06:19:42.451Z,13.63
2018-07-14T06:22:10.690Z,13.53
2018-07-14T06:24:39.057Z,13.23
2018-07-14T06:27:07.248Z,12.40
2018-07-14T06:29:35.473Z,17.83
2018-07-14T06:32:03.686Z,15.00
2018-07-14T06:34:32.011Z,17.43
2018-07-14T06:37:00.535Z,13.23
2018-07-14T06:39:28.909Z,13.07
2018-07-14T06:41:57.079Z,20.13
2018-07-14T06:44:25.248Z,12.97
2018-07-14T06:46:53.753Z,13.03
2018-07-14T06:49:21.915Z,11.50
2018-07-14T06:51:50.072Z,11.43
2018-07-14T06:54:18.286Z,14.00
2018-07-14T06:56:46.622Z,12.30
2018-07-14T06:59:14.812Z,17.43
2018-07-14T07:01:43.009Z,13.97
2018-07-14T07:04:11.624Z,13.10
2018-07-14T07:06:39.785Z,12.60
2018-07-14T07:09:07.952Z,11.70
2018-07-14T07:11:36.197Z,12.57
2018-07-14T07:14:04.488Z,12.83
2018-07-14T07:16:32.851Z,12.93
2018-07-14T07:19:01.140Z,11.43
2018-07-14T07:21:29.835Z,10.63
2018-07-14T07:23:58.238Z,10.20
2018-07-14T07:26:26.481Z,10.67
2018-07-14T07:28:54.705Z,10.13
2018-07-14T07:31:23.018Z,11.77
2018-07-14T07:33:51.224Z,9.83
2018-07-14T07:36:19.577Z,9.10
2018-07-14T07:38:47.773Z,15.33
2018-07-14T07:41:16.067Z,9.03
2018-07-14T07:43:44.251Z,9.73
2018-07-14T07:46:12.540Z,10.23
2018-07-14T07:48:40.703Z,8.80
2018-07-14T07:51:08.926Z,8.50
2018-07-14T07:53:39.471Z,9.00
2018-07-14T07:56:07.752Z,9.20
2018-07-14T07:58:35.979Z,9.30
2018-07-14T08:01:04.343Z,9.00
2018-07-14T08:03:32.527Z,7.37
2018-07-14T08:06:00.817Z,8.90
2018-07-14T08:08:28.998Z,7.90
2018-07-14T08:10:57.399Z,8.83
2018-07-14T08:13:25.567Z,7.80
2018-07-14T08:15:54.116Z,8.07
2018-07-14T08:18:22.303Z,7.50
2018-07-14T08:20:50.508Z,7.93
2018-07-14T08:23:18.824Z,6.97
2018-07-14T08:25:46.970Z,8.03
2018-07-14T08:28:15.183Z,7.93
2018-07-14T08:30:43.382Z,7.57
2018-07-14T08:33:11.556Z,11.10
2018-07-14T08:35:39.752Z,8.73
2018-07-14T08:38:08.398Z,8.30
2018-07-14T08:40:36.785Z,7.50
2018-07-14T08:43:04.996Z,7.37
2018-07-14T08:45:33.264Z,8.10
2018-07-14T08:48:01.615Z,7.13
2018-07-14T08:50:29.820Z,6.90
2018-07-14T08:52:58.282Z,6.93
2018-07-14T08:55:26.413Z,6.73
2018-07-14T08:57:54.696Z,6.50
2018-07-14T09:00:22.884Z,6.73
2018-07-14T09:02:51.159Z,7.10
2018-07-14T09:05:19.321Z,7.70
2018-07-14T09:07:47.715Z,8.57
2018-07-14T09:10:16.133Z,9.30
2018-07-14T09:12:44.384Z,8.20
2018-07-14T09:15:12.603Z,7.97
2018-07-14T09:17:40.776Z,8.57
2018-07-14T09:20:08.971Z,9.57
2018-07-14T09:22:37.583Z,8.17
2018-07-14T09:25:05.872Z,7.80
2018-07-14T09:27:34.232Z,7.10
2018-07-14T09:30:02.710Z,6.30
2018-07-14T09:32:31.113Z,7.10
2018-07-14T09:34:59.462Z,7.43
2018-07-14T09:37:27.724Z,8.07
2018-07-14T09:39:56.024Z,7.77
2018-07-14T09:42:24.314Z,6.33
2018-07-14T09:44:52.583Z,7.80
2018-07-14T09:47:20.819Z,6.23
2018-07-14T09:49:48.954Z,6.23
2018-07-14T09:52:17.148Z,6.67
2018-07-14T09:54:45.392Z,10.27
2018-07-14T09:57:13.588Z,7.40
2018-07-14T09:59:41.771Z,13.63
2018-07-14T10:02:10.116Z,6.07
2018-07-14T10:04:38.328Z,6.10
2018-07-14T10:07:06.583Z,5.93
2018-07-14T10:09:34.765Z,6.43
2018-07-14T10:12:03.224Z,6.40
2018-07-14T10:14:31.415Z,7.53
2018-07-14T10:16:59.567Z,7.43
2018-07-14T10:19:27.772Z,6.13
2018-07-14T10:21:55.942Z,6.87
2018-07-14T10:24:24.100Z,6.00
2018-07-14T10:26:52.295Z,5.33
2018-07-14T10:29:20.505Z,6.67
2018-07-14T10:31:48.859Z,5.87
2018-07-14T10:34:16.985Z,5.60
2018-07-14T10:36:45.140Z,8.63
2018-07-14T10:39:13.964Z,5.20
2018-07-14T10:41:42.140Z,5.90
2018-07-14T10:44:10.269Z,6.23
2018-07-14T10:46:38.505Z,6.10
2018-07-14T10:49:06.904Z,5.90
2018-07-14T10:51:35.159Z,7.60
2018-07-14T10:54:03.488Z,5.50
2018-07-14T10:56:31.636Z,4.60
2018-07-14T10:58:59.827Z,4.93
2018-07-14T11:01:27.991Z,5.33
2018-07-14T11:03:56.155Z,6.57
2018-07-14T11:06:24.511Z,6.03
2018-07-14T11:08:52.666Z,6.70
2018-07-14T11:11:20.831Z,6.33
2018-07-14T11:13:49.099Z,6.60
2018-07-14T11:16:17.316Z,5.43
2018-07-14T11:18:45.443Z,6.77
2018-07-14T11:21:13.807Z,5.20
2018-07-14T11:23:42.154Z,6.97
2018-07-14T11:26:10.411Z,5.60
2018-07-14T11:28:38.635Z,6.00
2018-07-14T11:31:07.281Z,5.93
2018-07-14T11:33:35.465Z,6.47
2018-07-14T11:36:03.672Z,5.33
2018-07-14T11:38:31.960Z,6.03
2018-07-14T11:41:00.099Z,5.90
2018-07-14T11:43:28.363Z,5.67
2018-07-14T11:45:56.871Z,5.37
2018-07-14T11:48:25.421Z,5.53
2018-07-14T11:50:53.940Z,5.90
2018-07-14T11:53:22.764Z,5.57
2018-07-14T11:55:50.915Z,5.30
2018-07-14T11:58:19.055Z,5.97
2018-07-14T12:00:47.323Z,5.30
2018-07-14T12:03:15.523Z,5.30
2018-07-14T12:05:44.125Z,5.80
2018-07-14T12:08:12.280Z,8.20
2018-07-14T12:10:40.471Z,5.47
2018-07-14T12:13:08.642Z,5.90
2018-07-14T12:15:36.901Z,7.97
2018-07-14T12:18:05.084Z,5.60
2018-07-14T12:20:33.247Z,5.50
2018-07-14T12:23:01.444Z,6.00
2018-07-14T12:25:29.708Z,5.90
2018-07-14T12:27:57.888Z,5.57
2018-07-14T12:30:26.094Z,5.73
2018-07-14T12:32:54.489Z,6.00
2018-07-14T12:35:23.060Z,6.27
2018-07-14T12:37:51.431Z,5.40
2018-07-14T12:40:19.711Z,5.83
2018-07-14T12:42:47.917Z,5.27
2018-07-14T12:45:16.139Z,5.57
2018-07-14T12:47:44.344Z,5.43
2018-07-14T12:50:12.533Z,5.00
2018-07-14T12:52:40.822Z,5.00
2018-07-14T12:55:09.165Z,5.03
2018-07-14T12:57:37.368Z,5.30
2018-07-14T13:00:05.763Z,5.00
2018-07-14T13:02:34.139Z,5.17
2018-07-14T13:05:02.811Z,4.90
2018-07-14T13:07:31.059Z,4.63
2018-07-14T13:09:59.647Z,5.17
2018-07-14T13:12:28.388Z,5.20
2018-07-14T13:14:56.916Z,4.93
2018-07-14T13:17:25.400Z,5.37
2018-07-14T13:19:53.784Z,5.43
2018-07-14T13:22:22.116Z,4.43
2018-07-14T13:24:50.370Z,5.17
2018-07-14T13:27:18.595Z,5.13
2018-07-14T13:29:46.887Z,5.83
2018-07-14T13:32:15.065Z,5.83
2018-07-14T13:34:43.276Z,5.07
2018-07-14T13:37:11.657Z,4.97
2018-07-14T13:39:39.887Z,5.50
2018-07-14T13:42:08.076Z,5.53
2018-07-14T13:44:36.344Z,5.13
2018-07-14T13:47:04.872Z,4.63
2018-07-14T13:49:33.246Z,4.83
2018-07-14T13:52:01.455Z,5.00
2018-07-14T13:54:29.671Z,5.03
2018-07-14T13:56:57.849Z,5.50
2018-07-14T13:59:26.383Z,5.33
2018-07-14T14:01:54.764Z,5.53
2018-07-14T14:04:22.928Z,5.50
2018-07-14T14:06:51.471Z,5.20
2018-07-14T14:09:19.739Z,4.80
2018-07-14T14:11:47.953Z,5.83
2018-07-14T14:14:16.181Z,4.60
2018-07-14T14:16:44.569Z,6.30
2018-07-14T14:19:12.841Z,5.30
2018-07-14T14:21:41.092Z,5.27
2018-07-14T14:24:09.692Z,5.87
2018-07-14T14:26:38.245Z,5.13
2018-07-14T14:29:06.512Z,5.33
2018-07-14T14:31:34.647Z,5.60
2018-07-14T14:34:02.900Z,7.23
2018-07-14T14:36:31.139Z,5.43
2018-07-14T14:38:59.783Z,13.73
2018-07-14T14:41:28.272Z,5.83
2018-07-14T14:43:56.564Z,7.00
2018-07-14T14:46:24.812Z,5.87
2018-07-14T14:48:53.123Z,6.10
2018-07-14T14:51:21.395Z,5.90
2018-07-14T14:53:49.670Z,6.40
2018-07-14T14:56:17.827Z,6.27
2018-07-14T14:58:46.094Z,5.97
2018-07-14T15:01:14.285Z,5.67
2018-07-14T15:03:42.655Z,5.50
2018-07-14T15:06:11.253Z,6.03
2018-07-14T15:08:39.448Z,6.63
2018-07-14T15:11:07.801Z,5.87
2018-07-14T15:13:36.277Z,6.00
2018-07-14T15:16:04.673Z,5.47
2018-07-14T15:18:33.148Z,5.73
2018-07-14T15:21:01.431Z,5.17
2018-07-14T15:23:29.580Z,6.00
2018-07-14T15:25:57.796Z,7.53
2018-07-14T15:28:26.275Z,5.30
2018-07-14T15:30:54.602Z,5.63
2018-07-14T15:33:22.895Z,5.10
2018-07-14T15:35:51.459Z,5.83
2018-07-14T15:38:19.672Z,6.20
2018-07-14T15:40:47.943Z,5.67
2018-07-14T15:43:16.111Z,5.83
2018-07-14T15:45:44.572Z,6.43
2018-07-14T15:48:13.149Z,5.70
2018-07-14T15:50:41.464Z,6.10
2018-07-14T15:53:09.651Z,5.37
2018-07-14T15:55:37.923Z,5.73
2018-07-14T15:58:06.219Z,5.70
2018-07-14T16:00:34.784Z,6.03
2018-07-14T16:03:03.024Z,6.00
2018-07-14T16:05:31.749Z,5.63
2018-07-14T16:08:00.000Z,5.43
2018-07-14T16:10:28.452Z,5.77
2018-07-14T16:12:56.584Z,5.80
2018-07-14T16:15:25.703Z,5.90
2018-07-14T16:17:53.901Z,6.43
2018-07-14T16:20:22.256Z,5.60
2018-07-14T16:22:50.416Z,5.83
2018-07-14T16:25:18.584Z,6.00
2018-07-14T16:27:46.786Z,5.10
2018-07-14T16:30:15.144Z,6.57
2018-07-14T16:32:43.342Z,6.20
2018-07-14T16:35:11.550Z,6.63
2018-07-14T16:37:40.171Z,6.90
2018-07-14T16:40:08.467Z,6.40
2018-07-14T16:42:36.629Z,6.00
2018-07-14T16:45:05.431Z,5.37
2018-07-14T16:47:33.595Z,5.70
2018-07-14T16:50:01.798Z,6.57
2018-07-14T16:52:30.167Z,5.67
2018-07-14T16:54:58.525Z,6.47
2018-07-14T16:57:26.848Z,5.90
2018-07-14T16:59:55.394Z,5.80
2018-07-14T17:02:23.600Z,5.63
2018-07-14T17:04:51.785Z,6.43
2018-07-14T17:07:20.062Z,6.30
2018-07-14T17:09:48.231Z,6.43
2018-07-14T17:12:16.468Z,6.20
2018-07-14T17:14:44.643Z,6.20
2018-07-14T17:17:12.876Z,5.97
2018-07-14T17:19:41.560Z,6.20
2018-07-14T17:22:10.320Z,5.50
2018-07-14T17:24:38.672Z,6.40
2018-07-14T17:27:07.022Z,6.27
2018-07-14T17:29:35.448Z,6.93
2018-07-14T17:32:03.785Z,7.37
2018-07-14T17:34:32.132Z,6.90
2018-07-14T17:37:00.479Z,8.30
2018-07-14T17:39:28.667Z,6.17
2018-07-14T17:41:56.831Z,7.47
2018-07-14T17:44:25.006Z,6.70
2018-07-14T17:46:53.409Z,7.80
2018-07-14T17:49:21.551Z,7.20
2018-07-14T17:51:49.846Z,6.97
2018-07-14T17:54:18.550Z,7.47
2018-07-14T17:56:46.736Z,6.03
2018-07-14T17:59:14.964Z,7.67
2018-07-14T18:01:43.443Z,7.90
2018-07-14T18:04:13.097Z,7.40
2018-07-14T18:06:42.251Z,7.63
2018-07-14T18:09:11.705Z,7.70
2018-07-14T18:11:41.029Z,10.27
2018-07-14T18:14:10.137Z,10.77
2018-07-14T18:16:39.303Z,7.93
2018-07-14T18:19:08.536Z,8.40
2018-07-14T18:21:37.746Z,8.37
2018-07-14T18:24:07.003Z,7.03
2018-07-14T18:26:36.240Z,6.97
2018-07-14T18:29:05.852Z,8.23
2018-07-14T18:31:35.025Z,6.40
2018-07-14T18:34:04.367Z,6.47
2018-07-14T18:36:32.618Z,9.60
2018-07-14T18:39:00.805Z,10.13
2018-07-14T18:41:29.004Z,7.93
2018-07-14T18:43:57.286Z,7.77
2018-07-14T18:46:25.855Z,20.77
2018-07-14T18:48:54.056Z,10.17
2018-07-14T18:51:22.394Z,8.23
2018-07-14T18:53:50.732Z,8.10
2018-07-14T18:56:18.912Z,7.90
2018-07-14T18:58:47.166Z,8.40
2018-07-14T19:01:15.374Z,6.57
2018-07-14T19:03:44.481Z,7.77
2018-07-14T19:06:13.692Z,7.10
2018-07-14T19:08:42.035Z,9.50
2018-07-14T19:11:11.141Z,54.23
2018-07-14T19:13:39.353Z,15.30
2018-07-14T19:16:07.500Z,8.83
2018-07-14T19:18:35.752Z,8.60
2018-07-14T19:21:04.039Z,35.17
2018-07-14T19:23:32.519Z,17.03
2018-07-14T19:26:00.999Z,12.37
2018-07-14T19:28:29.506Z,10.03
2018-07-14T19:30:57.688Z,9.10
2018-07-14T19:33:25.916Z,9.47
2018-07-14T19:35:54.239Z,12.33
2018-07-14T19:38:22.979Z,10.00
2018-07-14T19:40:51.132Z,9.90
2018-07-14T19:43:19.633Z,8.80
2018-07-14T19:45:47.800Z,9.17
2018-07-14T19:48:16.189Z,8.63
2018-07-14T19:50:44.703Z,8.90
2018-07-14T19:53:12.877Z,8.90
2018-07-14T19:55:41.110Z,9.60
2018-07-14T19:58:09.430Z,9.00
2018-07-14T20:00:37.964Z,8.90
2018-07-14T20:03:06.284Z,9.40
2018-07-14T20:05:34.525Z,9.50
2018-07-14T20:08:02.882Z,9.80
2018-07-14T20:10:31.126Z,9.57
2018-07-14T20:12:59.379Z,9.77
2018-07-14T20:15:27.892Z,9.80
2018-07-14T20:17:56.068Z,11.83
2018-07-14T20:20:24.577Z,10.50
2018-07-14T20:22:52.810Z,11.80
2018-07-14T20:25:21.001Z,16.47
2018-07-14T20:27:49.245Z,12.30
2018-07-14T20:30:17.557Z,11.20
2018-07-14T20:32:45.811Z,12.73
2018-07-14T20:35:14.120Z,11.47
2018-07-14T20:37:42.340Z,13.43
2018-07-14T20:40:10.520Z,13.00
2018-07-14T20:42:38.684Z,12.83
2018-07-14T20:45:06.912Z,13.23
2018-07-14T20:47:35.148Z,13.13
2018-07-14T20:50:03.356Z,13.17
2018-07-14T20:52:31.638Z,12.40
2018-07-14T20:54:59.789Z,16.33
2018-07-14T20:57:28.061Z,13.87
2018-07-14T20:59:56.204Z,14.17
2018-07-14T21:02:24.370Z,14.77
2018-07-14T21:04:52.508Z,14.03
2018-07-14T21:07:20.676Z,14.90
2018-07-14T21:09:48.815Z,15.30
2018-07-14T21:12:17.017Z,15.20
2018-07-14T21:14:45.410Z,20.73
2018-07-14T21:17:13.565Z,15.40
2018-07-14T21:19:43.085Z,16.43
2018-07-14T21:22:11.350Z,14.33
2018-07-14T21:24:39.808Z,13.47
2018-07-14T21:27:08.009Z,14.17
2018-07-14T21:29:36.169Z,13.70
2018-07-14T21:32:04.457Z,14.20
2018-07-14T21:34:32.861Z,14.80
2018-07-14T21:37:01.348Z,13.60
2018-07-14T21:39:29.525Z,13.80
2018-07-14T21:41:57.689Z,14.60
2018-07-14T21:44:25.871Z,14.83
2018-07-14T21:46:54.288Z,14.87
2018-07-14T21:49:22.606Z,13.73
2018-07-14T21:51:50.889Z,13.40
2018-07-14T21:54:19.133Z,15.40
2018-07-14T21:56:47.343Z,13.07
2018-07-14T21:59:15.508Z,13.30
2018-07-14T22:01:50.159Z,14.90
2018-07-14T22:04:18.804Z,13.50
2018-07-14T22:06:47.419Z,14.00
2018-07-14T22:09:17.447Z,14.37
2018-07-14T22:11:45.729Z,15.90
2018-07-14T22:14:13.900Z,41.77
2018-07-14T22:16:42.279Z,14.33
2018-07-14T22:19:10.451Z,15.13
2018-07-14T22:21:38.652Z,14.20
2018-07-14T22:24:06.829Z,13.90
2018-07-14T22:26:35.028Z,14.13
2018-07-14T22:29:03.670Z,14.03
2018-07-14T22:31:31.984Z,15.70
2018-07-14T22:34:00.500Z,14.30
2018-07-14T22:36:28.691Z,15.30
2018-07-14T22:38:56.919Z,16.43
2018-07-14T22:41:25.184Z,14.93
2018-07-14T22:43:53.529Z,15.33
2018-07-14T22:46:21.824Z,14.13
2018-07-14T22:48:50.393Z,15.80
2018-07-14T22:51:18.992Z,15.00
2018-07-14T22:53:47.243Z,15.40
2018-07-14T22:56:15.586Z,16.60
2018-07-14T22:58:43.796Z,14.90
2018-07-14T23:01:11.996Z,16.73
2018-07-14T23:03:40.136Z,16.07
2018-07-14T23:06:08.496Z,17.13
2018-07-14T23:08:36.735Z,16.77
2018-07-14T23:11:04.994Z,14.97
2018-07-14T23:13:33.176Z,16.60
2018-07-14T23:16:01.387Z,16.43
2018-07-14T23:18:29.554Z,14.73
2018-07-14T23:20:57.794Z,16.60
2018-07-14T23:23:26.068Z,15.27
2018-07-14T23:25:54.277Z,14.80
2018-07-14T23:28:22.767Z,14.40
2018-07-14T23:30:51.303Z,15.40
2018-07-14T23:33:19.583Z,16.97
2018-07-14T23:35:48.121Z,15.83
2018-07-14T23:38:16.468Z,16.43
2018-07-14T23:40:44.651Z,16.07
2018-07-14T23:43:12.928Z,17.33
2018-07-14T23:45:41.642Z,15.33
2018-07-14T23:48:09.880Z,15.70
2018-07-14T23:50:38.267Z,16.67
2018-07-14T23:53:06.463Z,14.93
2018-07-14T23:55:34.725Z,16.40
2018-07-14T23:58:03.448Z,16.33
